Time;durP1;ratioP1;P1;durP2;ratioP2;P2;SDS_P1;SDS_P2;PMS_P1;PMS_P2;Temp;Humidity;BMP_temperature;BMP_pressure;BME280_temperature;BME280_humidity;BME280_pressure;Samples;Min_cycle;Max_cycle;Signal;HPM_P1;HPM_P2
2021/06/07 00:01:04;;;;;;;15.27;5.80;;;19.80;87.60;;;;;;5048874;28;20027;-59
2021/06/07 00:03:30;;;;;;;12.23;5.78;;;19.80;87.60;;;;;;5056973;28;20021;-61
2021/06/07 00:05:55;;;;;;;8.10;5.80;;;19.80;87.60;;;;;;5043978;28;20098;-59
2021/06/07 00:08:21;;;;;;;8.45;5.93;;;19.70;87.50;;;;;;5020451;28;20642;-60
2021/06/07 00:10:47;;;;;;;10.27;6.50;;;19.80;87.60;;;;;;5046565;28;20035;-60
2021/06/07 00:13:12;;;;;;;8.38;6.10;;;19.80;87.70;;;;;;5036460;28;20035;-59
2021/06/07 00:15:38;;;;;;;8.07;6.35;;;19.80;87.70;;;;;;5049882;28;20073;-59
2021/06/07 00:18:04;;;;;;;9.38;6.05;;;19.80;87.60;;;;;;5044503;28;20899;-59
2021/06/07 00:20:32;;;;;;;9.73;5.60;;;19.70;87.50;;;;;;5052921;28;20037;-59
2021/06/07 00:22:58;;;;;;;15.75;6.45;;;19.70;87.50;;;;;;5016835;28;20049;-61
2021/06/07 00:25:23;;;;;;;7.85;6.32;;;19.70;87.50;;;;;;5027658;28;20746;-59
2021/06/07 00:27:49;;;;;;;10.57;6.00;;;19.70;87.60;;;;;;5046808;28;20047;-59
2021/06/07 00:30:15;;;;;;;8.43;5.68;;;19.70;87.60;;;;;;5052938;28;20492;-59
2021/06/07 00:32:40;;;;;;;9.02;5.82;;;19.70;87.70;;;;;;5041957;28;20020;-59
2021/06/07 00:35:06;;;;;;;12.93;6.40;;;19.70;87.60;;;;;;5025804;28;20037;-59
2021/06/07 00:37:32;;;;;;;10.45;6.93;;;19.70;87.50;;;;;;5054233;28;20505;-60
2021/06/07 00:39:57;;;;;;;8.30;6.00;;;19.70;87.60;;;;;;5051914;28;20087;-59
2021/06/07 00:42:23;;;;;;;9.10;6.45;;;19.70;87.70;;;;;;5055109;28;20083;-60
2021/06/07 00:44:48;;;;;;;7.57;5.88;;;19.70;87.60;;;;;;5035808;28;20025;-60
2021/06/07 00:47:14;;;;;;;8.23;5.88;;;19.70;87.70;;;;;;5052036;28;20112;-59
2021/06/07 00:49:40;;;;;;;7.55;5.82;;;19.70;87.60;;;;;;5056431;28;20566;-61
2021/06/07 00:52:06;;;;;;;7.97;5.63;;;19.70;87.70;;;;;;5041635;28;20759;-59
2021/06/07 00:54:31;;;;;;;7.38;5.18;;;19.60;87.70;;;;;;5052836;28;20050;-59
2021/06/07 00:56:57;;;;;;;8.70;6.28;;;19.60;87.80;;;;;;5048276;28;20044;-59
2021/06/07 00:59:22;;;;;;;8.88;6.05;;;19.60;87.70;;;;;;5057588;28;20024;-59
2021/06/07 01:01:48;;;;;;;8.05;5.88;;;19.60;87.70;;;;;;5050892;28;20022;-61
2021/06/07 01:04:13;;;;;;;8.27;6.40;;;19.60;87.50;;;;;;5046711;28;20504;-60
2021/06/07 01:06:39;;;;;;;9.30;6.50;;;19.60;87.60;;;;;;5032384;28;20104;-60
2021/06/07 01:09:05;;;;;;;10.07;6.40;;;19.60;87.70;;;;;;5047021;28;20049;-59
2021/06/07 01:11:31;;;;;;;9.38;7.18;;;19.60;87.70;;;;;;5026264;28;20489;-61
2021/06/07 01:13:57;;;;;;;8.35;5.60;;;19.60;87.60;;;;;;5031604;28;20642;-59
2021/06/07 01:16:22;;;;;;;8.25;6.75;;;19.60;87.70;;;;;;5048713;28;20041;-60
2021/06/07 01:18:48;;;;;;;10.90;6.28;;;19.60;87.60;;;;;;5049448;28;20120;-59
2021/06/07 01:21:18;;;;;;;9.57;6.10;;;19.60;87.50;;;;;;5050059;28;20032;-61
2021/06/07 01:23:45;;;;;;;9.90;6.15;;;19.60;87.70;;;;;;5032986;28;20060;-60
2021/06/07 01:26:11;;;;;;;11.35;6.93;;;19.60;87.60;;;;;;5031415;28;20030;-59
2021/06/07 01:28:37;;;;;;;8.23;6.45;;;19.60;87.50;;;;;;5043689;28;20025;-59
2021/06/07 01:31:02;;;;;;;7.28;6.47;;;19.60;87.50;;;;;;5024357;28;20021;-59
2021/06/07 01:33:28;;;;;;;9.15;6.28;;;19.60;87.40;;;;;;5042171;28;20044;-59
2021/06/07 01:35:55;;;;;;;8.90;6.72;;;19.60;87.50;;;;;;5032557;28;20044;-59
2021/06/07 01:38:20;;;;;;;9.23;6.32;;;19.60;87.60;;;;;;5053537;28;20017;-61
2021/06/07 01:40:51;;;;;;;7.25;6.35;;;19.60;87.60;;;;;;5037966;28;20025;-59
2021/06/07 01:43:16;;;;;;;10.93;6.82;;;19.60;87.50;;;;;;5023315;28;20048;-60
2021/06/07 01:45:43;;;;;;;9.80;7.25;;;19.50;87.50;;;;;;5058649;28;20086;-60
2021/06/07 01:48:09;;;;;;;7.55;6.13;;;19.50;87.60;;;;;;5051749;28;20028;-61
2021/06/07 01:50:35;;;;;;;8.25;6.35;;;19.50;87.50;;;;;;5053822;28;20508;-61
2021/06/07 01:53:01;;;;;;;7.88;6.93;;;19.50;87.40;;;;;;5028908;28;20071;-61
2021/06/07 01:55:37;;;;;;;8.13;7.03;;;19.50;87.40;;;;;;5036708;28;20039;-61
2021/06/07 01:58:04;;;;;;;8.68;6.55;;;19.50;87.50;;;;;;5028260;28;20378;-60
2021/06/07 02:00:48;;;;;;;15.85;7.57;;;19.50;87.60;;;;;;5050323;28;20017;-58
2021/06/07 02:03:16;;;;;;;8.85;7.70;;;19.50;87.60;;;;;;5026546;28;20040;-59
2021/06/07 02:05:42;;;;;;;9.05;6.68;;;19.50;87.60;;;;;;5040242;28;20025;-60
2021/06/07 02:08:09;;;;;;;8.57;7.40;;;19.50;87.50;;;;;;5041634;28;20033;-60
2021/06/07 02:10:40;;;;;;;9.93;7.47;;;19.50;87.50;;;;;;5034794;28;20515;-59
2021/06/07 02:13:06;;;;;;;10.52;7.78;;;19.50;87.60;;;;;;5039468;28;20032;-60
2021/06/07 02:15:31;;;;;;;10.20;7.35;;;19.50;87.60;;;;;;5018547;28;20385;-59
2021/06/07 02:18:04;;;;;;;8.68;7.30;;;19.50;88.20;;;;;;5032414;28;20036;-60
2021/06/07 02:20:30;;;;;;;8.95;7.78;;;19.50;87.80;;;;;;5039123;28;20040;-59
2021/06/07 02:22:56;;;;;;;9.43;8.23;;;19.50;87.60;;;;;;5026790;28;20037;-61
2021/06/07 02:25:21;;;;;;;9.20;7.93;;;19.40;87.50;;;;;;5028551;28;20381;-60
2021/06/07 02:27:47;;;;;;;9.60;8.00;;;19.50;87.50;;;;;;5028122;28;20036;-60
2021/06/07 02:30:19;;;;;;;9.20;7.53;;;19.40;87.50;;;;;;5026256;28;20033;-61
2021/06/07 02:32:44;;;;;;;9.35;7.05;;;19.50;87.60;;;;;;5040725;28;20027;-59
2021/06/07 02:35:12;;;;;;;8.50;7.35;;;19.40;87.40;;;;;;5034133;28;20388;-59
2021/06/07 02:37:37;;;;;;;8.50;7.70;;;19.40;87.50;;;;;;5050717;28;20039;-61
2021/06/07 02:40:05;;;;;;;9.90;8.70;;;19.40;87.60;;;;;;5060832;28;20036;-60
2021/06/07 02:42:30;;;;;;;10.88;8.40;;;19.40;87.60;;;;;;5046878;28;20065;-59
2021/06/07 02:44:56;;;;;;;11.70;8.68;;;19.40;87.60;;;;;;5034422;28;20067;-60
2021/06/07 02:47:21;;;;;;;9.30;8.25;;;19.40;87.60;;;;;;5019936;28;20064;-61
2021/06/07 02:49:47;;;;;;;10.57;8.55;;;19.40;87.60;;;;;;5040443;28;20108;-61
2021/06/07 02:52:12;;;;;;;10.93;8.05;;;19.40;87.70;;;;;;5055702;28;20028;-59
2021/06/07 02:54:38;;;;;;;9.20;8.07;;;19.40;87.80;;;;;;5048057;28;20094;-60
2021/06/07 02:57:04;;;;;;;10.00;7.97;;;19.40;87.70;;;;;;5025787;28;20025;-60
2021/06/07 02:59:30;;;;;;;9.73;8.20;;;19.40;87.70;;;;;;5049048;28;20033;-60
2021/06/07 03:01:55;;;;;;;8.88;7.97;;;19.40;87.80;;;;;;5040583;28;20034;-61
2021/06/07 03:04:21;;;;;;;9.48;8.30;;;19.30;88.00;;;;;;5036645;28;20055;-60
2021/06/07 03:06:46;;;;;;;8.98;8.07;;;19.30;87.70;;;;;;5040389;28;20033;-61
2021/06/07 03:09:12;;;;;;;9.52;8.55;;;19.30;87.70;;;;;;5042781;28;20074;-61
2021/06/07 03:11:38;;;;;;;8.68;7.15;;;19.30;87.80;;;;;;5047875;28;20094;-59
2021/06/07 03:14:03;;;;;;;9.45;7.80;;;19.40;87.80;;;;;;5043392;28;20071;-60
2021/06/07 03:16:29;;;;;;;10.50;8.07;;;19.30;87.70;;;;;;5045290;28;20116;-60
2021/06/07 03:18:54;;;;;;;7.97;7.18;;;19.30;87.70;;;;;;5028306;28;20033;-59
2021/06/07 03:21:20;;;;;;;7.90;7.10;;;19.30;87.60;;;;;;5030488;28;20041;-60
2021/06/07 03:23:45;;;;;;;12.73;7.50;;;19.30;87.60;;;;;;5040085;28;20132;-60
2021/06/07 03:26:11;;;;;;;11.35;7.82;;;19.30;87.60;;;;;;5045939;28;20531;-60
2021/06/07 03:28:37;;;;;;;10.15;8.18;;;19.30;87.60;;;;;;5043758;28;20132;-60
2021/06/07 03:31:03;;;;;;;11.30;8.23;;;19.30;87.60;;;;;;5028214;28;20512;-61
2021/06/07 03:33:28;;;;;;;8.93;7.00;;;19.30;87.60;;;;;;5051228;28;20724;-59
2021/06/07 03:35:55;;;;;;;7.63;6.93;;;19.40;87.60;;;;;;5031918;28;20106;-61
2021/06/07 03:38:21;;;;;;;8.30;7.30;;;19.30;87.50;;;;;;5008270;28;20459;-59
2021/06/07 03:40:48;;;;;;;7.60;6.85;;;19.30;87.50;;;;;;5039091;28;20039;-59
2021/06/07 03:43:14;;;;;;;8.32;7.22;;;19.30;88.10;;;;;;5054462;28;20036;-60
2021/06/07 03:45:40;;;;;;;7.90;7.18;;;19.30;87.50;;;;;;5058228;28;20037;-59
2021/06/07 03:48:05;;;;;;;9.07;7.25;;;19.30;87.50;;;;;;5045441;28;20082;-60
2021/06/07 03:50:31;;;;;;;8.27;7.43;;;19.30;87.60;;;;;;5031154;28;20116;-60
2021/06/07 03:52:57;;;;;;;9.27;8.35;;;19.30;87.50;;;;;;5043909;28;20061;-60
2021/06/07 03:55:23;;;;;;;8.80;7.80;;;19.30;87.50;;;;;;5032041;28;20036;-60
2021/06/07 03:57:49;;;;;;;8.75;7.30;;;19.30;87.50;;;;;;5038720;28;20063;-59
2021/06/07 04:00:16;;;;;;;8.40;7.55;;;19.30;87.50;;;;;;5047790;28;20052;-59
2021/06/07 04:02:42;;;;;;;9.70;8.15;;;19.30;87.50;;;;;;5033437;28;20056;-60
2021/06/07 04:05:08;;;;;;;8.73;7.85;;;19.30;87.40;;;;;;5036093;28;20509;-59
2021/06/07 04:07:34;;;;;;;8.40;7.60;;;19.20;87.30;;;;;;5034802;28;20033;-59
2021/06/07 04:10:01;;;;;;;8.30;7.47;;;19.30;87.30;;;;;;5038262;28;20040;-59
2021/06/07 04:12:27;;;;;;;7.95;7.15;;;19.30;87.40;;;;;;5030907;28;20030;-58
2021/06/07 04:14:52;;;;;;;7.68;6.95;;;19.20;87.40;;;;;;5033394;28;20128;-58
2021/06/07 04:17:19;;;;;;;9.10;8.20;;;19.20;87.40;;;;;;5041383;28;20029;-59
2021/06/07 04:19:45;;;;;;;8.45;7.55;;;19.20;87.40;;;;;;5041819;28;20033;-58
2021/06/07 04:22:10;;;;;;;8.88;7.45;;;19.20;87.50;;;;;;5034023;28;20045;-59
2021/06/07 04:24:36;;;;;;;8.27;7.45;;;19.20;87.50;;;;;;5026331;28;20037;-59
2021/06/07 04:27:01;;;;;;;9.48;8.05;;;19.20;87.60;;;;;;5036874;28;20033;-59
2021/06/07 04:29:27;;;;;;;9.88;7.55;;;19.20;87.70;;;;;;5026046;28;20086;-59
2021/06/07 04:31:52;;;;;;;8.15;7.20;;;19.20;87.70;;;;;;5025308;28;20040;-59
2021/06/07 04:34:18;;;;;;;8.23;7.43;;;19.20;87.90;;;;;;5040323;28;20061;-60
2021/06/07 04:36:43;;;;;;;9.40;7.55;;;19.10;87.60;;;;;;5027512;28;20030;-59
2021/06/07 04:39:10;;;;;;;9.40;7.75;;;19.20;87.70;;;;;;5045599;28;20382;-59
2021/06/07 04:41:36;;;;;;;11.27;6.78;;;19.20;87.90;;;;;;5036456;28;20024;-59
2021/06/07 04:44:02;;;;;;;8.52;7.47;;;19.10;87.90;;;;;;5004654;28;20025;-59
2021/06/07 04:46:27;;;;;;;8.20;7.40;;;19.10;88.10;;;;;;5029749;28;20048;-59
2021/06/07 04:48:53;;;;;;;8.68;7.80;;;19.10;88.10;;;;;;5041023;28;20064;-59
2021/06/07 04:51:18;;;;;;;9.13;7.55;;;19.10;88.30;;;;;;5037179;28;20032;-59
2021/06/07 04:53:44;;;;;;;10.60;8.50;;;19.10;88.30;;;;;;5035448;28;20029;-58
2021/06/07 04:56:10;;;;;;;10.02;7.25;;;19.10;88.20;;;;;;5032140;28;20037;-59
2021/06/07 04:58:35;;;;;;;8.15;7.35;;;19.10;88.20;;;;;;5011930;28;20471;-59
2021/06/07 05:01:03;;;;;;;8.20;7.32;;;19.10;88.20;;;;;;5027649;28;20034;-59
2021/06/07 05:03:29;;;;;;;7.60;6.78;;;19.10;88.30;;;;;;5042754;28;20017;-59
2021/06/07 05:05:55;;;;;;;8.75;7.85;;;19.10;88.30;;;;;;5050292;28;20524;-59
2021/06/07 05:08:22;;;;;;;8.38;7.57;;;19.10;88.30;;;;;;5029010;28;20095;-59
2021/06/07 05:10:47;;;;;;;8.02;7.22;;;19.00;88.10;;;;;;5024431;28;20473;-59
2021/06/07 05:13:13;;;;;;;8.15;7.35;;;19.00;88.10;;;;;;5046449;28;20093;-59
2021/06/07 05:15:38;;;;;;;8.70;7.90;;;19.00;88.10;;;;;;5039426;28;20116;-59
2021/06/07 05:18:05;;;;;;;8.32;7.53;;;19.00;88.10;;;;;;5038152;28;20033;-59
2021/06/07 05:20:30;;;;;;;12.18;7.05;;;19.00;88.10;;;;;;5027165;28;20069;-59
2021/06/07 05:22:56;;;;;;;8.20;7.18;;;19.00;88.20;;;;;;5020765;28;20077;-59
2021/06/07 05:25:22;;;;;;;8.38;7.65;;;19.00;88.30;;;;;;5043771;28;20667;-59
2021/06/07 05:27:48;;;;;;;8.82;7.90;;;19.00;88.20;;;;;;5017585;28;20151;-58
2021/06/07 05:30:14;;;;;;;7.90;7.10;;;19.00;88.40;;;;;;5013822;28;20028;-59
2021/06/07 05:32:40;;;;;;;9.60;7.65;;;19.00;88.30;;;;;;5046691;28;20040;-59
2021/06/07 05:35:07;;;;;;;8.27;7.47;;;19.00;88.30;;;;;;5034751;28;20041;-59
2021/06/07 05:37:33;;;;;;;7.80;7.05;;;19.00;88.20;;;;;;5028635;28;20040;-59
2021/06/07 05:39:58;;;;;;;10.02;7.38;;;19.00;88.90;;;;;;5045073;28;20401;-60
2021/06/07 05:42:24;;;;;;;8.10;7.30;;;19.00;88.20;;;;;;5055932;28;20778;-59
2021/06/07 05:44:49;;;;;;;8.07;7.25;;;19.00;88.40;;;;;;5043700;28;20036;-59
2021/06/07 05:47:15;;;;;;;8.20;7.40;;;19.00;88.30;;;;;;5053140;28;20051;-59
2021/06/07 05:49:40;;;;;;;8.13;7.32;;;19.00;88.20;;;;;;5045571;28;20033;-59
2021/06/07 05:52:06;;;;;;;8.30;7.50;;;19.00;88.20;;;;;;5047351;28;20033;-59
2021/06/07 05:54:32;;;;;;;9.15;7.60;;;19.00;88.30;;;;;;5031345;28;20140;-60
2021/06/07 05:56:58;;;;;;;10.77;7.88;;;19.00;88.20;;;;;;5028691;28;20112;-59
2021/06/07 05:59:23;;;;;;;8.35;7.55;;;19.00;88.20;;;;;;5037190;28;20083;-59
2021/06/07 06:01:49;;;;;;;8.55;7.68;;;19.00;88.20;;;;;;5046474;28;20028;-59
2021/06/07 06:04:14;;;;;;;8.65;7.70;;;19.00;88.20;;;;;;5041103;28;20767;-59
2021/06/07 06:06:40;;;;;;;9.38;7.40;;;19.00;88.20;;;;;;5049440;28;20028;-59
2021/06/07 06:09:06;;;;;;;8.80;7.57;;;18.90;88.20;;;;;;5040503;28;20020;-61
2021/06/07 06:11:31;;;;;;;8.15;7.30;;;19.00;88.20;;;;;;5053131;28;20020;-59
2021/06/07 06:13:57;;;;;;;8.00;7.20;;;19.00;88.20;;;;;;5032470;28;20614;-59
2021/06/07 06:16:23;;;;;;;10.88;7.47;;;19.00;88.10;;;;;;5034934;28;20041;-59
2021/06/07 06:18:49;;;;;;;8.32;7.45;;;19.10;88.30;;;;;;5050649;28;20137;-59
2021/06/07 06:21:14;;;;;;;8.48;7.22;;;19.00;88.50;;;;;;5030134;28;20192;-59
2021/06/07 06:23:40;;;;;;;9.15;7.60;;;19.00;88.40;;;;;;5032156;28;20476;-59
2021/06/07 06:26:07;;;;;;;11.43;7.68;;;19.00;88.50;;;;;;5051572;28;20029;-59
2021/06/07 06:28:34;;;;;;;9.25;6.80;;;19.00;88.30;;;;;;5029313;28;20029;-59
2021/06/07 06:31:01;;;;;;;7.40;6.70;;;19.00;88.30;;;;;;5034312;28;20025;-59
2021/06/07 06:33:26;;;;;;;10.60;7.43;;;19.00;88.40;;;;;;5058062;28;20572;-59
2021/06/07 06:35:52;;;;;;;8.75;7.60;;;19.00;88.50;;;;;;5051794;28;20110;-59
2021/06/07 06:38:17;;;;;;;11.93;7.50;;;19.10;88.70;;;;;;5043287;28;20037;-60
2021/06/07 06:40:43;;;;;;;11.68;7.30;;;19.10;88.60;;;;;;5035687;28;20088;-59
2021/06/07 06:43:08;;;;;;;9.30;7.78;;;19.10;88.60;;;;;;5047522;28;20032;-59
2021/06/07 06:45:34;;;;;;;8.60;7.60;;;19.10;88.60;;;;;;5051241;28;20033;-59
2021/06/07 06:48:00;;;;;;;9.90;7.38;;;19.10;88.40;;;;;;5046256;28;20086;-60
2021/06/07 06:50:27;;;;;;;14.95;8.25;;;19.10;88.60;;;;;;5046822;28;20475;-59
2021/06/07 06:52:53;;;;;;;28.48;8.27;;;19.10;88.80;;;;;;5041522;28;20198;-59
2021/06/07 06:55:18;;;;;;;21.65;8.70;;;19.10;88.80;;;;;;5030574;28;20612;-59
2021/06/07 06:57:44;;;;;;;11.98;8.10;;;19.20;88.80;;;;;;5050652;28;20100;-59
2021/06/07 07:00:10;;;;;;;14.57;7.65;;;19.20;88.70;;;;;;5046614;28;20105;-59
2021/06/07 07:02:36;;;;;;;14.25;8.05;;;19.20;88.60;;;;;;5042995;28;20124;-59
2021/06/07 07:05:01;;;;;;;15.00;8.93;;;19.20;89.00;;;;;;5040686;28;20108;-59
2021/06/07 07:07:27;;;;;;;21.02;9.27;;;19.20;89.20;;;;;;5050522;28;20036;-59
2021/06/07 07:09:52;;;;;;;18.00;8.55;;;19.20;89.90;;;;;;5044594;28;20033;-58
2021/06/07 07:12:23;;;;;;;16.25;9.02;;;19.20;90.10;;;;;;5045579;28;20029;-59
2021/06/07 07:14:48;;;;;;;20.27;9.70;;;19.20;90.30;;;;;;5038729;28;20387;-59
2021/06/07 07:17:14;;;;;;;20.60;9.35;;;19.20;90.40;;;;;;5008775;28;20124;-59
2021/06/07 07:19:39;;;;;;;20.20;9.32;;;19.10;90.50;;;;;;5045100;28;20124;-59
2021/06/07 07:22:05;;;;;;;21.13;9.95;;;19.10;90.60;;;;;;5024695;28;20053;-59
2021/06/07 07:24:30;;;;;;;21.50;9.77;;;19.10;90.70;;;;;;5020025;28;20029;-58
2021/06/07 07:26:56;;;;;;;30.95;10.68;;;19.10;90.90;;;;;;5008880;28;20032;-59
2021/06/07 07:29:22;;;;;;;27.38;10.43;;;19.10;91.00;;;;;;5032941;28;20036;-59
2021/06/07 07:31:48;;;;;;;25.10;10.45;;;19.10;91.10;;;;;;5046835;28;20045;-59
2021/06/07 07:34:13;;;;;;;33.35;11.05;;;19.10;91.20;;;;;;5049829;28;20095;-59
2021/06/07 07:36:39;;;;;;;29.27;10.48;;;19.10;91.30;;;;;;5037586;28;20094;-59
2021/06/07 07:39:04;;;;;;;26.58;11.52;;;19.20;91.40;;;;;;5034802;28;20048;-59
2021/06/07 07:41:30;;;;;;;22.35;10.60;;;19.00;91.50;;;;;;5024487;28;20551;-59
2021/06/07 07:43:55;;;;;;;25.60;10.10;;;19.10;91.60;;;;;;5046040;28;20044;-59
2021/06/07 07:46:21;;;;;;;21.65;10.50;;;19.10;91.50;;;;;;5041822;28;20438;-59
2021/06/07 07:48:46;;;;;;;26.58;10.40;;;19.10;91.40;;;;;;5045188;28;20365;-59
2021/06/07 07:51:12;;;;;;;29.67;11.93;;;19.20;91.50;;;;;;5038946;28;20529;-58
2021/06/07 07:53:37;;;;;;;25.13;10.57;;;19.10;91.60;;;;;;5037457;28;20032;-59
2021/06/07 07:56:03;;;;;;;28.48;9.73;;;19.10;91.50;;;;;;5039009;28;20033;-58
2021/06/07 07:58:29;;;;;;;27.95;9.88;;;19.20;91.60;;;;;;5026582;28;20395;-59
2021/06/07 08:00:55;;;;;;;27.15;10.50;;;19.20;91.70;;;;;;5032458;28;20386;-59
2021/06/07 08:03:20;;;;;;;34.17;10.52;;;19.20;91.70;;;;;;5025111;28;20056;-58
2021/06/07 08:05:46;;;;;;;25.30;9.85;;;19.20;91.90;;;;;;5046604;28;20092;-59
2021/06/07 08:08:12;;;;;;;29.67;9.23;;;19.20;91.90;;;;;;5029157;28;20540;-59
2021/06/07 08:10:37;;;;;;;30.83;10.60;;;19.20;91.90;;;;;;5027641;28;20076;-59
2021/06/07 08:13:03;;;;;;;33.30;9.90;;;19.20;92.00;;;;;;5044394;28;20631;-59
2021/06/07 08:15:29;;;;;;;33.08;10.60;;;19.20;92.10;;;;;;5039253;28;20036;-59
2021/06/07 08:17:54;;;;;;;29.17;9.73;;;19.20;92.10;;;;;;5032117;28;20032;-59
2021/06/07 08:20:20;;;;;;;32.00;9.45;;;19.20;92.10;;;;;;5039116;28;20109;-59
2021/06/07 08:22:50;;;;;;;40.05;10.23;;;19.30;92.10;;;;;;5018260;28;20044;-59
2021/06/07 08:25:17;;;;;;;34.58;10.13;;;19.30;92.10;;;;;;5038060;28;20366;-59
2021/06/07 08:27:42;;;;;;;35.60;9.85;;;19.30;92.20;;;;;;5009957;28;20256;-59
2021/06/07 08:30:08;;;;;;;35.63;9.63;;;19.30;92.30;;;;;;5045337;28;20037;-59
2021/06/07 08:32:35;;;;;;;60.67;11.00;;;19.30;92.10;;;;;;5028927;28;20033;-59
2021/06/07 08:35:00;;;;;;;37.67;9.93;;;19.30;92.20;;;;;;5022429;28;20029;-59
2021/06/07 08:37:26;;;;;;;34.83;8.85;;;19.40;92.20;;;;;;5027834;28;20042;-59
2021/06/07 08:39:51;;;;;;;32.13;8.45;;;19.40;92.10;;;;;;5039353;28;20108;-59
2021/06/07 08:42:17;;;;;;;30.95;8.00;;;19.40;91.90;;;;;;5047586;28;20135;-59
2021/06/07 08:44:42;;;;;;;32.92;7.63;;;19.40;91.90;;;;;;5025354;28;20104;-58
2021/06/07 08:47:08;;;;;;;34.20;8.93;;;19.40;91.80;;;;;;5046844;28;20025;-58
2021/06/07 08:49:34;;;;;;;34.13;7.75;;;19.50;92.10;;;;;;5043471;28;20036;-59
2021/06/07 08:51:59;;;;;;;23.35;7.68;;;19.50;91.80;;;;;;5029176;28;20136;-59
2021/06/07 08:54:25;;;;;;;37.13;7.93;;;19.60;92.10;;;;;;5022968;28;20495;-59
2021/06/07 08:56:51;;;;;;;33.90;8.68;;;19.50;92.20;;;;;;5044284;28;20021;-59
2021/06/07 08:59:16;;;;;;;40.55;8.43;;;19.50;92.30;;;;;;5030520;28;20055;-59
2021/06/07 09:01:42;;;;;;;53.83;8.15;;;19.50;92.30;;;;;;5051159;28;20033;-59
2021/06/07 09:04:12;;;;;;;41.85;8.50;;;19.60;92.40;;;;;;5024096;28;20037;-58
2021/06/07 09:06:42;;;;;;;43.85;8.73;;;19.50;92.30;;;;;;5049118;28;20079;-59
2021/06/07 09:09:08;;;;;;;38.65;8.30;;;19.60;92.60;;;;;;5044668;28;20017;-59
2021/06/07 09:12:01;;;;;;;44.63;8.98;;;19.60;92.50;;;;;;5020485;28;20182;-59
2021/06/07 09:14:29;;;;;;;66.43;10.25;;;19.60;92.60;;;;;;5040096;28;20037;-58
2021/06/07 09:16:54;;;;;;;54.78;8.88;;;19.60;92.50;;;;;;5047322;28;20264;-58
2021/06/07 09:19:30;;;;;;;43.25;8.73;;;19.70;92.50;;;;;;5044949;28;20424;-58
2021/06/07 09:22:16;;;;;;;49.53;9.15;;;19.70;92.50;;;;;;5048143;28;20451;-58
2021/06/07 09:25:10;;;;;;;104.47;11.73;;;19.70;92.60;;;;;;5025916;28;20466;-59
2021/06/07 09:27:36;;;;;;;58.47;9.25;;;19.70;92.70;;;;;;5027823;28;20033;-58
2021/06/07 09:30:26;;;;;;;55.65;8.88;;;19.80;92.70;;;;;;5027532;28;20543;-58
2021/06/07 09:33:15;;;;;;;56.08;9.57;;;19.80;92.50;;;;;;5048807;28;20441;-58
2021/06/07 09:35:41;;;;;;;51.13;10.10;;;19.80;92.50;;;;;;5049163;28;20020;-59
2021/06/07 09:38:06;;;;;;;58.78;9.63;;;19.80;92.60;;;;;;5038493;28;20025;-58
2021/06/07 09:40:32;;;;;;;67.30;9.90;;;19.80;92.50;;;;;;5026937;28;20036;-59
2021/06/07 09:42:59;;;;;;;50.20;8.00;;;19.90;92.40;;;;;;5029244;28;20492;-58
2021/06/07 09:45:55;;;;;;;58.75;8.82;;;19.90;92.60;;;;;;5038541;28;20558;-59
2021/06/07 09:48:26;;;;;;;48.30;8.70;;;19.90;92.30;;;;;;5020853;28;20032;-59
2021/06/07 09:50:59;;;;;;;46.83;7.82;;;20.00;92.20;;;;;;5021912;28;20063;-58
2021/06/07 09:53:46;;;;;;;48.88;8.13;;;20.00;92.20;;;;;;5028505;28;20047;-59
2021/06/07 09:56:12;;;;;;;39.58;7.70;;;20.10;92.20;;;;;;5033665;28;20594;-58
2021/06/07 09:58:39;;;;;;;68.97;9.73;;;20.10;92.10;;;;;;5043277;28;20076;-59
2021/06/07 10:01:13;;;;;;;53.75;8.00;;;20.20;92.20;;;;;;5030506;28;20067;-58
2021/06/07 10:03:48;;;;;;;53.65;8.43;;;20.20;92.00;;;;;;5042771;28;20083;-59
2021/06/07 10:06:33;;;;;;;57.25;7.85;;;20.20;92.00;;;;;;5029145;28;20345;-59
2021/06/07 10:09:00;;;;;;;46.15;7.55;;;20.30;92.00;;;;;;5043446;28;20041;-58
2021/06/07 10:11:36;;;;;;;48.40;7.85;;;20.30;92.00;;;;;;5045814;28;20057;-59
2021/06/07 10:14:06;;;;;;;55.17;8.50;;;20.30;91.80;;;;;;5028700;28;20167;-58
2021/06/07 10:16:32;;;;;;;42.85;8.00;;;20.40;91.80;;;;;;5040205;28;20060;-59
2021/06/07 10:18:59;;;;;;;40.80;6.80;;;20.40;91.90;;;;;;5028569;28;20053;-58
2021/06/07 10:21:25;;;;;;;46.80;7.55;;;20.40;91.80;;;;;;5034353;28;20089;-59
2021/06/07 10:23:50;;;;;;;40.42;6.63;;;20.40;91.70;;;;;;5028133;28;20037;-59
2021/06/07 10:26:16;;;;;;;60.30;7.50;;;20.40;91.60;;;;;;5044841;28;20029;-59
2021/06/07 10:28:42;;;;;;;58.13;7.28;;;20.40;91.70;;;;;;5043048;28;20604;-59
2021/06/07 10:31:14;;;;;;;66.93;9.63;;;20.40;91.60;;;;;;5044842;28;20017;-58
2021/06/07 10:33:41;;;;;;;57.42;8.70;;;20.40;91.70;;;;;;5044191;28;20037;-59
2021/06/07 10:36:22;;;;;;;51.85;7.68;;;20.50;91.80;;;;;;5023415;28;20021;-58
2021/06/07 10:39:18;;;;;;;57.50;8.90;;;20.50;91.60;;;;;;5055376;28;20088;-58
2021/06/07 10:42:09;;;;;;;37.90;7.22;;;20.50;91.80;;;;;;5030226;28;20037;-59
2021/06/07 10:44:56;;;;;;;49.42;7.63;;;20.50;91.60;;;;;;5051900;28;20375;-59
2021/06/07 10:47:23;;;;;;;63.80;7.90;;;20.60;91.60;;;;;;5037850;28;20040;-59
2021/06/07 10:50:05;;;;;;;50.72;7.78;;;20.60;91.60;;;;;;5031303;28;20100;-59
2021/06/07 10:52:53;;;;;;;41.20;8.10;;;20.70;91.40;;;;;;5034210;28;20021;-59
2021/06/07 10:55:45;;;;;;;44.10;5.88;;;20.80;91.20;;;;;;5044350;28;20041;-58
2021/06/07 10:58:12;;;;;;;61.05;8.95;;;20.80;90.90;;;;;;5023931;28;20045;-59
2021/06/07 11:00:46;;;;;;;46.05;7.68;;;20.90;90.90;;;;;;5031932;28;20050;-59
2021/06/07 11:03:16;;;;;;;34.75;6.05;;;20.90;90.60;;;;;;5036367;28;20035;-59
2021/06/07 11:05:42;;;;;;;31.73;5.95;;;21.00;90.50;;;;;;5039098;28;20044;-59
2021/06/07 11:08:15;;;;;;;29.73;5.22;;;21.20;90.30;;;;;;5026047;28;20091;-59
2021/06/07 11:10:42;;;;;;;44.45;6.63;;;21.20;90.00;;;;;;5038266;28;20032;-59
2021/06/07 11:13:10;;;;;;;27.45;5.32;;;21.20;89.70;;;;;;5042454;28;20078;-58
2021/06/07 11:15:42;;;;;;;42.38;6.20;;;21.30;89.60;;;;;;5026380;28;20043;-59
2021/06/07 11:18:18;;;;;;;36.45;6.53;;;21.40;89.50;;;;;;5033889;28;20111;-59
2021/06/07 11:20:43;;;;;;;;;;;21.40;89.30;;;;;;5042333;28;20033;-59
2021/06/07 11:23:10;;;;;;;53.80;7.82;;;21.40;89.20;;;;;;5033918;28;19916;-59
2021/06/07 11:25:54;;;;;;;33.90;5.80;;;21.50;88.90;;;;;;5049192;28;20071;-59
2021/06/07 11:28:47;;;;;;;27.65;5.65;;;21.50;88.60;;;;;;5040830;28;20021;-59
2021/06/07 11:31:15;;;;;;;32.28;5.38;;;21.60;88.60;;;;;;5032638;28;20466;-59
2021/06/07 11:33:51;;;;;;;27.33;4.97;;;21.60;88.40;;;;;;5010762;28;20040;-58
2021/06/07 11:36:42;;;;;;;16.38;4.32;;;21.60;87.90;;;;;;5027524;28;20033;-59
2021/06/07 11:39:12;;;;;;;36.25;5.03;;;21.60;88.10;;;;;;5038461;28;20034;-59
2021/06/07 11:41:46;;;;;;;28.40;4.80;;;21.60;87.60;;;;;;5041352;28;20358;-59
2021/06/07 11:44:12;;;;;;;27.73;4.90;;;21.60;87.90;;;;;;5044256;28;20015;-59
2021/06/07 11:46:38;;;;;;;20.42;4.18;;;21.70;88.00;;;;;;5034162;28;20029;-59
2021/06/07 11:49:07;;;;;;;17.05;4.07;;;21.70;88.10;;;;;;5041665;28;20393;-58
2021/06/07 11:51:33;;;;;;;19.35;4.20;;;21.70;88.10;;;;;;5026092;28;20127;-59
2021/06/07 11:53:59;;;;;;;34.58;5.20;;;21.70;88.00;;;;;;5033291;28;20060;-59
2021/06/07 11:56:24;;;;;;;38.65;6.28;;;21.70;87.90;;;;;;5047561;28;20037;-59
2021/06/07 11:58:51;;;;;;;28.58;5.28;;;21.70;88.20;;;;;;5040973;28;20045;-59
2021/06/07 12:01:16;;;;;;;20.42;4.63;;;21.70;88.20;;;;;;5039704;28;20611;-59
2021/06/07 12:03:45;;;;;;;20.42;4.47;;;21.80;87.70;;;;;;5053356;28;20033;-59
2021/06/07 12:06:10;;;;;;;21.05;5.00;;;21.90;87.50;;;;;;5019095;28;20845;-59
2021/06/07 12:08:36;;;;;;;24.55;4.72;;;22.00;87.50;;;;;;5017572;28;20033;-59
2021/06/07 12:11:03;;;;;;;28.25;4.53;;;22.00;87.20;;;;;;5042531;28;20020;-59
2021/06/07 12:13:30;;;;;;;38.17;6.25;;;22.00;87.50;;;;;;5022872;28;20511;-59
2021/06/07 12:16:12;;;;;;;73.05;9.02;;;22.00;87.10;;;;;;5036072;28;20053;-59
2021/06/07 12:18:52;;;;;;;68.57;8.63;;;22.10;87.40;;;;;;5043297;28;20857;-60
2021/06/07 12:21:25;;;;;;;103.07;10.63;;;22.10;87.00;;;;;;5039733;28;20103;-59
2021/06/07 12:29:25;;;;;;;63.55;8.40;;;22.20;86.30;;;;;;5047523;28;20036;-59
2021/06/07 12:32:18;;;;;;;54.17;7.53;;;22.20;86.00;;;;;;5024332;28;20057;-60
2021/06/07 12:35:05;;;;;;;81.75;8.73;;;22.20;86.30;;;;;;5034911;28;20056;-59
2021/06/07 12:37:34;;;;;;;87.80;9.05;;;22.40;86.30;;;;;;5036003;28;20495;-60
2021/06/07 12:40:17;;;;;;;47.83;6.78;;;22.20;86.30;;;;;;5035677;28;20025;-59
2021/06/07 12:42:44;;;;;;;52.83;6.97;;;22.20;86.20;;;;;;5029316;28;20484;-59
2021/06/07 12:45:14;;;;;;;52.90;6.63;;;22.20;86.20;;;;;;5046618;28;20081;-59
2021/06/07 12:47:40;;;;;;;35.78;5.70;;;22.30;85.90;;;;;;5029030;28;20036;-59
2021/06/07 12:50:07;;;;;;;44.92;6.78;;;22.30;86.10;;;;;;5015432;28;20029;-60